Time;durP1;ratioP1;P1;durP2;ratioP2;P2;SDS_P1;SDS_P2;PMS_P1;PMS_P2;Temp;Humidity;BMP_temperature;BMP_pressure;BME280_temperature;BME280_humidity;BME280_pressure;Samples;Min_cycle;Max_cycle;Signal;HPM_P1;HPM_P2
2023/06/08 00:00:26;;;;;;;4.28;2.30;;;25.20;46.10;;;;;;5031549;28;20200;-69
2023/06/08 00:02:55;;;;;;;3.13;1.58;;;25.10;46.10;;;;;;5031668;28;20033;-68
2023/06/08 00:05:22;;;;;;;2.00;1.73;;;25.10;46.10;;;;;;5031058;28;20401;-68
2023/06/08 00:07:48;;;;;;;3.03;2.10;;;25.10;46.10;;;;;;5031396;28;20037;-68
2023/06/08 00:10:14;;;;;;;3.85;2.10;;;25.10;46.10;;;;;;5031271;28;20036;-69
2023/06/08 00:12:40;;;;;;;2.65;1.80;;;25.20;46.10;;;;;;5031596;28;20037;-68
2023/06/08 00:15:07;;;;;;;4.60;1.90;;;25.10;46.10;;;;;;5029838;28;20040;-68
2023/06/08 00:17:33;;;;;;;4.55;1.90;;;25.10;46.10;;;;;;5029931;28;20044;-68
2023/06/08 00:20:07;;;;;;;1.88;1.60;;;25.10;46.10;;;;;;5031172;28;20060;-69
2023/06/08 00:22:36;;;;;;;4.97;2.45;;;25.10;46.10;;;;;;5046096;28;20029;-69
2023/06/08 00:25:06;;;;;;;3.72;2.08;;;25.20;46.10;;;;;;5031216;28;20044;-68
2023/06/08 00:27:32;;;;;;;3.63;2.25;;;25.10;46.10;;;;;;5031274;28;20113;-69
2023/06/08 00:29:58;;;;;;;1.70;1.60;;;25.10;46.20;;;;;;5031060;28;20033;-68
2023/06/08 00:32:24;;;;;;;3.28;2.40;;;25.00;46.20;;;;;;5028295;28;20045;-68
2023/06/08 00:34:50;;;;;;;3.03;2.10;;;25.00;46.20;;;;;;5028594;28;20555;-68
2023/06/08 00:37:16;;;;;;;2.65;1.80;;;25.20;46.20;;;;;;5028420;28;20068;-68
2023/06/08 00:39:42;;;;;;;2.85;1.92;;;25.10;46.10;;;;;;5028785;28;20473;-69
2023/06/08 00:42:08;;;;;;;3.08;2.30;;;25.00;46.10;;;;;;5028238;28;20049;-69
2023/06/08 00:44:34;;;;;;;2.75;2.13;;;25.00;46.10;;;;;;5028396;28;20119;-69
2023/06/08 00:47:00;;;;;;;3.72;2.40;;;24.90;46.20;;;;;;5028568;28;20048;-69
2023/06/08 00:49:31;;;;;;;5.50;2.08;;;25.00;46.30;;;;;;5028420;28;20041;-69
2023/06/08 00:51:58;;;;;;;3.38;1.90;;;25.00;46.40;;;;;;5028422;28;20037;-68
2023/06/08 00:54:25;;;;;;;2.70;2.03;;;25.00;46.40;;;;;;5028425;28;20061;-68
2023/06/08 00:56:52;;;;;;;2.88;1.80;;;24.90;46.50;;;;;;5012023;28;20111;-69
2023/06/08 00:59:20;;;;;;;5.82;2.08;;;24.90;46.50;;;;;;4995688;28;20116;-69
2023/06/08 01:01:47;;;;;;;2.45;1.98;;;25.00;46.50;;;;;;5028314;28;20445;-68
2023/06/08 01:04:14;;;;;;;4.43;2.13;;;25.00;46.40;;;;;;5042827;28;20041;-68
2023/06/08 01:06:45;;;;;;;5.28;2.03;;;25.00;46.50;;;;;;5032975;28;20047;-68
2023/06/08 01:09:37;;;;;;;2.83;2.00;;;25.00;46.40;;;;;;5051101;28;20033;-68
2023/06/08 01:12:34;;;;;;;2.25;1.92;;;25.10;46.40;;;;;;5050690;28;20045;-69
2023/06/08 01:15:15;;;;;;;4.50;1.88;;;25.10;46.30;;;;;;4991919;28;20493;-69
2023/06/08 01:17:45;;;;;;;3.28;1.92;;;25.00;46.30;;;;;;5008633;28;20133;-69
2023/06/08 01:20:20;;;;;;;2.85;1.98;;;25.00;46.20;;;;;;4992305;28;20065;-67
2023/06/08 01:23:20;;;;;;;3.45;1.92;;;25.10;46.10;;;;;;4992083;28;20112;-68
2023/06/08 01:25:48;;;;;;;2.88;2.10;;;25.10;46.10;;;;;;4991500;28;20417;-70
2023/06/08 01:28:15;;;;;;;2.55;2.20;;;25.10;46.10;;;;;;4991684;28;20038;-69
2023/06/08 01:30:43;;;;;;;5.18;2.17;;;25.10;46.10;;;;;;4974908;28;20038;-68
2023/06/08 01:33:15;;;;;;;3.72;2.00;;;25.00;46.20;;;;;;4988835;28;20042;-68
2023/06/08 01:35:44;;;;;;;5.45;2.40;;;25.00;46.20;;;;;;4975479;28;20494;-68
2023/06/08 01:38:23;;;;;;;3.85;1.88;;;25.00;46.30;;;;;;4960018;28;20046;-69
2023/06/08 01:40:54;;;;;;;3.00;2.38;;;24.80;46.20;;;;;;4992253;28;20047;-69
2023/06/08 01:43:23;;;;;;;3.25;1.90;;;25.00;46.30;;;;;;4992172;28;20808;-68
2023/06/08 01:45:55;;;;;;;2.40;1.83;;;25.00;46.40;;;;;;4991919;28;20060;-69
2023/06/08 01:48:23;;;;;;;4.60;2.25;;;24.90;46.50;;;;;;4991924;28;20511;-68
2023/06/08 01:50:51;;;;;;;2.10;1.70;;;24.90;46.50;;;;;;4997746;28;20073;-68
2023/06/08 01:53:17;;;;;;;2.72;1.70;;;24.90;46.50;;;;;;5033832;28;20040;-68
2023/06/08 01:55:49;;;;;;;3.40;2.30;;;24.90;46.50;;;;;;5032620;28;20140;-69
2023/06/08 01:58:15;;;;;;;4.18;2.00;;;25.10;46.50;;;;;;5016024;28;20536;-68
2023/06/08 02:00:41;;;;;;;6.00;2.13;;;25.00;46.50;;;;;;5032226;28;20037;-68
2023/06/08 02:03:07;;;;;;;7.03;2.22;;;25.00;46.50;;;;;;5033749;28;20084;-68
2023/06/08 02:05:33;;;;;;;2.47;1.50;;;25.00;46.50;;;;;;5033511;28;20045;-68
2023/06/08 02:08:00;;;;;;;1.98;1.52;;;25.00;46.50;;;;;;5032285;28;20563;-68
2023/06/08 02:10:26;;;;;;;2.90;1.98;;;25.00;46.40;;;;;;5033649;28;20454;-68
2023/06/08 02:12:52;;;;;;;2.58;1.92;;;25.00;46.50;;;;;;5033371;28;20025;-69
2023/06/08 02:15:18;;;;;;;2.53;1.63;;;25.00;46.50;;;;;;5032085;28;20033;-69
2023/06/08 02:17:44;;;;;;;4.97;2.13;;;24.80;46.40;;;;;;5033342;28;20397;-68
2023/06/08 02:20:10;;;;;;;2.42;1.88;;;25.00;46.50;;;;;;5032122;28;20148;-69
2023/06/08 02:22:37;;;;;;;4.63;2.10;;;24.90;46.50;;;;;;5033231;28;20060;-68
2023/06/08 02:25:05;;;;;;;4.07;2.25;;;24.90;46.60;;;;;;5032877;28;20044;-68
2023/06/08 02:27:36;;;;;;;4.28;2.05;;;24.90;46.60;;;;;;5031877;28;20033;-69
2023/06/08 02:30:08;;;;;;;4.00;2.30;;;24.80;46.50;;;;;;5010570;28;20069;-68
2023/06/08 02:32:34;;;;;;;3.53;2.30;;;25.00;46.60;;;;;;4994388;28;20084;-68
2023/06/08 02:35:02;;;;;;;4.65;2.13;;;24.80;46.50;;;;;;5010607;28;20050;-69
2023/06/08 02:37:33;;;;;;;3.13;2.08;;;24.70;46.70;;;;;;4994461;28;20042;-68
2023/06/08 02:40:01;;;;;;;4.18;1.73;;;24.80;46.80;;;;;;4994305;28;20495;-68
2023/06/08 02:42:32;;;;;;;3.47;2.13;;;24.80;46.90;;;;;;5003579;28;20037;-68
2023/06/08 02:44:59;;;;;;;3.25;2.05;;;24.90;46.90;;;;;;5013560;28;20504;-69
2023/06/08 02:47:26;;;;;;;3.28;2.08;;;24.80;46.70;;;;;;5013943;28;20112;-68
2023/06/08 02:49:52;;;;;;;4.60;1.95;;;24.80;46.70;;;;;;5013687;28;20420;-69
2023/06/08 02:52:18;;;;;;;4.15;1.63;;;24.80;46.70;;;;;;5030231;28;20045;-68
2023/06/08 02:54:44;;;;;;;3.53;2.22;;;24.90;46.80;;;;;;5030310;28;20052;-68
2023/06/08 02:57:11;;;;;;;3.45;2.22;;;24.90;46.80;;;;;;5030017;28;20471;-69
2023/06/08 02:59:45;;;;;;;5.40;2.30;;;25.00;46.80;;;;;;5030271;28;20052;-68
2023/06/08 03:02:12;;;;;;;2.22;2.00;;;24.80;46.70;;;;;;5049630;28;20079;-69
2023/06/08 03:04:38;;;;;;;6.13;2.00;;;24.70;46.80;;;;;;5049597;28;20101;-68
2023/06/08 03:07:09;;;;;;;4.68;2.40;;;24.80;46.70;;;;;;5049606;28;20248;-68
2023/06/08 03:09:37;;;;;;;3.17;2.55;;;24.90;46.80;;;;;;5049415;28;20048;-68
2023/06/08 03:12:08;;;;;;;2.83;2.00;;;24.80;46.70;;;;;;5066219;28;20048;-68
2023/06/08 03:14:35;;;;;;;6.30;2.22;;;24.80;46.80;;;;;;5066333;28;20040;-68
2023/06/08 03:17:03;;;;;;;5.45;2.17;;;24.80;46.80;;;;;;5065882;28;20033;-69
2023/06/08 03:19:33;;;;;;;3.47;2.00;;;24.90;46.90;;;;;;5049582;28;20041;-68
2023/06/08 03:22:04;;;;;;;3.45;2.45;;;24.70;46.80;;;;;;5063748;28;20124;-68
2023/06/08 03:24:34;;;;;;;2.50;2.30;;;24.80;46.80;;;;;;5077174;28;20056;-68
2023/06/08 03:27:01;;;;;;;3.38;2.10;;;24.80;46.80;;;;;;5051887;28;20043;-68
2023/06/08 03:29:30;;;;;;;4.45;2.35;;;24.80;46.80;;;;;;5050600;28;20029;-68
2023/06/08 03:31:58;;;;;;;2.28;1.92;;;24.70;46.80;;;;;;5050528;28;20506;-68
2023/06/08 03:34:27;;;;;;;3.50;2.00;;;24.70;46.90;;;;;;5049894;28;20403;-68
2023/06/08 03:36:58;;;;;;;3.67;2.20;;;24.70;46.80;;;;;;5050382;28;20037;-68
2023/06/08 03:39:25;;;;;;;8.40;2.55;;;24.80;46.70;;;;;;5050496;28;20029;-68
2023/06/08 03:41:51;;;;;;;4.28;2.03;;;24.80;46.60;;;;;;5050562;28;20099;-68
2023/06/08 03:44:20;;;;;;;3.40;2.08;;;24.90;46.70;;;;;;5050367;28;20431;-68
2023/06/08 03:46:46;;;;;;;3.47;2.28;;;25.00;46.60;;;;;;5050459;28;20048;-68
2023/06/08 03:49:13;;;;;;;6.05;2.95;;;25.00;46.40;;;;;;5033950;28;20113;-68
2023/06/08 03:51:40;;;;;;;7.60;2.55;;;25.00;46.40;;;;;;5051588;28;20453;-68
2023/06/08 03:54:06;;;;;;;4.13;2.15;;;25.00;46.40;;;;;;5050427;28;20075;-69
2023/06/08 03:56:32;;;;;;;4.22;2.55;;;25.00;46.30;;;;;;5051083;28;20064;-69
2023/06/08 03:59:01;;;;;;;4.20;2.47;;;25.20;46.30;;;;;;5050415;28;20044;-69
2023/06/08 04:01:30;;;;;;;2.90;2.03;;;25.10;46.30;;;;;;5033677;28;20079;-69
2023/06/08 04:03:56;;;;;;;4.28;2.78;;;24.90;46.40;;;;;;5033798;28;20033;-68
2023/06/08 04:06:23;;;;;;;4.88;2.17;;;25.00;46.30;;;;;;5049915;28;20048;-69
2023/06/08 04:08:51;;;;;;;4.13;2.40;;;25.00;46.30;;;;;;5032259;28;20044;-68
2023/06/08 04:11:17;;;;;;;3.90;2.50;;;25.00;46.30;;;;;;5048746;28;20125;-69
2023/06/08 04:13:44;;;;;;;3.33;2.60;;;25.10;46.20;;;;;;5048780;28;20686;-69
2023/06/08 04:16:13;;;;;;;5.18;3.13;;;25.00;46.00;;;;;;5031850;28;20090;-69
2023/06/08 04:18:45;;;;;;;5.13;2.80;;;25.10;46.10;;;;;;5032162;28;20040;-68
2023/06/08 04:21:14;;;;;;;5.50;2.47;;;25.30;46.00;;;;;;5032090;28;20048;-69
2023/06/08 04:23:42;;;;;;;4.45;2.50;;;25.10;46.10;;;;;;5032043;28;20056;-68
2023/06/08 04:26:08;;;;;;;5.95;2.50;;;25.00;46.20;;;;;;5031658;28;20469;-69
2023/06/08 04:28:35;;;;;;;11.00;2.83;;;25.10;46.20;;;;;;5031721;28;20396;-69
2023/06/08 04:31:04;;;;;;;4.28;2.50;;;25.00;46.10;;;;;;5032119;28;20099;-68
2023/06/08 04:33:32;;;;;;;4.13;1.70;;;25.20;46.10;;;;;;5031931;28;20037;-68
2023/06/08 04:36:02;;;;;;;7.75;2.25;;;25.30;46.00;;;;;;5031721;28;20107;-68
2023/06/08 04:38:28;;;;;;;10.02;2.10;;;25.20;46.00;;;;;;5031560;28;20108;-69
2023/06/08 04:40:55;;;;;;;5.90;2.50;;;25.30;45.90;;;;;;5049733;28;20048;-69
2023/06/08 04:43:31;;;;;;;3.47;1.95;;;25.30;45.90;;;;;;5034516;28;20108;-69
2023/06/08 04:46:04;;;;;;;6.72;2.15;;;25.30;45.90;;;;;;5049551;28;20108;-68
2023/06/08 04:48:33;;;;;;;6.60;2.47;;;25.30;45.80;;;;;;5049511;28;20033;-68
2023/06/08 04:51:03;;;;;;;6.97;2.55;;;25.40;45.80;;;;;;5032903;28;20120;-69
2023/06/08 04:53:33;;;;;;;6.18;2.28;;;25.30;45.80;;;;;;5047913;28;20037;-69
2023/06/08 04:56:05;;;;;;;4.90;2.40;;;25.40;45.80;;;;;;5031957;28;20045;-68
2023/06/08 04:58:31;;;;;;;7.25;2.42;;;25.30;45.80;;;;;;5031663;28;20037;-69
2023/06/08 05:00:58;;;;;;;4.72;2.35;;;25.30;45.20;;;;;;5031943;28;20041;-68
2023/06/08 05:03:28;;;;;;;6.13;2.80;;;25.30;45.70;;;;;;5048261;28;20443;-68
2023/06/08 05:05:55;;;;;;;4.88;2.10;;;25.30;45.80;;;;;;5048076;28;20103;-69
2023/06/08 05:08:21;;;;;;;2.50;1.90;;;25.30;45.80;;;;;;5048091;28;20049;-69
2023/06/08 05:10:47;;;;;;;4.35;2.25;;;25.30;45.70;;;;;;5034956;28;20041;-69
2023/06/08 05:13:13;;;;;;;3.45;2.30;;;25.30;45.80;;;;;;5035307;28;20041;-69
2023/06/08 05:15:39;;;;;;;5.78;2.55;;;25.20;45.80;;;;;;5052233;28;20045;-69
2023/06/08 05:18:05;;;;;;;6.10;2.50;;;25.10;45.80;;;;;;5031458;28;20054;-69
2023/06/08 05:20:31;;;;;;;2.83;2.40;;;25.30;45.60;;;;;;5044775;28;20060;-69
2023/06/08 05:22:58;;;;;;;5.35;2.08;;;25.20;45.60;;;;;;5051894;28;20152;-69
2023/06/08 05:25:26;;;;;;;2.78;2.13;;;25.30;45.70;;;;;;5051810;28;20057;-68
2023/06/08 05:27:52;;;;;;;6.25;1.98;;;25.60;45.30;;;;;;5034948;28;21974;-69
2023/06/08 05:30:18;;;;;;;3.35;2.22;;;25.30;45.60;;;;;;5051631;28;20087;-69
2023/06/08 05:32:45;;;;;;;5.30;2.13;;;25.30;45.60;;;;;;5051954;28;20072;-68
2023/06/08 05:35:11;;;;;;;4.25;1.83;;;25.40;45.80;;;;;;5034973;28;20029;-68
2023/06/08 05:37:37;;;;;;;3.80;1.65;;;25.40;45.70;;;;;;5051481;28;20056;-68
2023/06/08 05:40:04;;;;;;;2.38;1.63;;;25.40;45.50;;;;;;5051623;28;20037;-68
2023/06/08 05:42:30;;;;;;;2.95;1.52;;;25.50;45.60;;;;;;5051508;28;20047;-69
2023/06/08 05:44:56;;;;;;;3.50;2.65;;;25.40;45.40;;;;;;5034815;28;20369;-69
2023/06/08 05:47:22;;;;;;;4.70;1.83;;;25.40;45.30;;;;;;5051118;28;20037;-68
2023/06/08 05:49:48;;;;;;;8.07;1.77;;;25.40;45.30;;;;;;5053098;28;20416;-69
2023/06/08 05:52:14;;;;;;;3.63;1.50;;;25.30;45.40;;;;;;5053952;28;20477;-68
2023/06/08 05:54:41;;;;;;;2.55;1.58;;;25.50;45.60;;;;;;5053897;28;20119;-69
2023/06/08 05:57:07;;;;;;;6.97;2.00;;;25.30;45.50;;;;;;5053728;28;20067;-68
2023/06/08 05:59:33;;;;;;;3.40;2.20;;;25.30;45.20;;;;;;5053678;28;20465;-69
2023/06/08 06:01:59;;;;;;;5.20;2.47;;;25.40;45.40;;;;;;5053416;28;20035;-69
2023/06/08 06:04:24;;;;;;;3.17;2.03;;;25.30;45.20;;;;;;5053275;28;20029;-69
2023/06/08 06:06:50;;;;;;;2.47;1.75;;;25.30;45.40;;;;;;5053193;28;20036;-69
2023/06/08 06:09:16;;;;;;;1.90;1.73;;;25.40;45.50;;;;;;5053538;28;20477;-69
2023/06/08 06:11:42;;;;;;;5.25;2.63;;;25.30;45.30;;;;;;5053566;28;20111;-68
2023/06/08 06:14:08;;;;;;;8.23;2.13;;;25.40;45.60;;;;;;5053339;28;20103;-69
2023/06/08 06:16:35;;;;;;;3.30;1.83;;;25.30;45.50;;;;;;5053173;28;20143;-69
2023/06/08 06:19:01;;;;;;;2.53;1.92;;;25.40;45.50;;;;;;5053367;28;20072;-69
2023/06/08 06:21:26;;;;;;;2.13;1.67;;;25.40;45.60;;;;;;5051310;28;20389;-69
2023/06/08 06:23:52;;;;;;;2.72;1.52;;;25.50;45.60;;;;;;5052271;28;20033;-68
2023/06/08 06:26:18;;;;;;;2.92;1.77;;;25.40;45.60;;;;;;5053063;28;20420;-69
2023/06/08 06:28:44;;;;;;;2.85;2.05;;;25.60;45.50;;;;;;5053211;28;20036;-69
2023/06/08 06:31:10;;;;;;;3.83;1.92;;;25.60;45.60;;;;;;5051798;28;20672;-68
2023/06/08 06:33:36;;;;;;;2.72;2.00;;;25.50;45.60;;;;;;5052826;28;20049;-68
2023/06/08 06:36:03;;;;;;;4.00;2.45;;;25.60;45.60;;;;;;5051960;28;20087;-69
2023/06/08 06:38:30;;;;;;;2.38;1.55;;;25.50;45.50;;;;;;5052922;28;20485;-68
2023/06/08 06:40:56;;;;;;;4.07;2.15;;;25.50;45.50;;;;;;5053085;28;20354;-69
2023/06/08 06:43:22;;;;;;;2.38;1.77;;;25.50;45.20;;;;;;5052725;28;20050;-68
2023/06/08 06:45:57;;;;;;;3.17;1.88;;;25.50;45.50;;;;;;5052740;28;20047;-68
2023/06/08 06:48:23;;;;;;;3.60;1.55;;;25.50;44.60;;;;;;5052395;28;20392;-68
2023/06/08 06:50:50;;;;;;;4.43;2.33;;;25.50;45.10;;;;;;5052425;28;20082;-69
2023/06/08 06:53:16;;;;;;;4.50;2.22;;;25.30;45.10;;;;;;5052724;28;20124;-69
2023/06/08 06:55:42;;;;;;;4.53;1.92;;;25.40;45.30;;;;;;5052562;28;20408;-68
2023/06/08 06:58:08;;;;;;;2.63;1.90;;;25.30;45.30;;;;;;5051043;28;20076;-69
2023/06/08 07:00:37;;;;;;;4.78;2.50;;;25.50;45.50;;;;;;5052412;28;20048;-69
2023/06/08 07:03:06;;;;;;;2.15;1.42;;;25.30;45.10;;;;;;5052764;28;20099;-69
2023/06/08 07:05:38;;;;;;;3.80;1.60;;;25.30;45.30;;;;;;5051139;28;20090;-68
2023/06/08 07:08:04;;;;;;;2.70;1.58;;;25.40;45.60;;;;;;5052212;28;20121;-68
2023/06/08 07:10:31;;;;;;;4.22;1.75;;;25.50;45.60;;;;;;5052450;28;20100;-68
2023/06/08 07:12:57;;;;;;;7.78;1.85;;;25.40;45.60;;;;;;5052254;28;20036;-68
2023/06/08 07:15:23;;;;;;;4.68;1.85;;;25.40;45.50;;;;;;5052206;28;20033;-69
2023/06/08 07:17:50;;;;;;;4.45;1.90;;;25.50;45.60;;;;;;5051767;28;20029;-68
2023/06/08 07:20:16;;;;;;;6.75;1.75;;;25.50;45.60;;;;;;5051674;28;20049;-69
2023/06/08 07:22:42;;;;;;;6.95;1.83;;;25.50;45.10;;;;;;5051730;28;20079;-68
2023/06/08 07:25:08;;;;;;;3.10;1.77;;;25.50;45.50;;;;;;5050873;28;20488;-69
2023/06/08 07:27:34;;;;;;;2.58;1.80;;;25.50;45.50;;;;;;5052007;28;20467;-69
2023/06/08 07:30:02;;;;;;;3.03;1.83;;;25.60;45.50;;;;;;5051841;28;20067;-69
2023/06/08 07:32:29;;;;;;;1.92;1.70;;;25.50;45.50;;;;;;5049866;28;20044;-68
2023/06/08 07:34:55;;;;;;;5.45;1.75;;;25.50;45.30;;;;;;5050624;28;20378;-69
2023/06/08 07:37:21;;;;;;;6.70;1.60;;;25.50;45.40;;;;;;5051778;28;20128;-68
2023/06/08 07:39:47;;;;;;;2.20;1.90;;;25.50;45.30;;;;;;5051915;28;20434;-69
2023/06/08 07:42:13;;;;;;;2.83;1.73;;;25.60;45.20;;;;;;5051734;28;20064;-68
2023/06/08 07:44:41;;;;;;;2.25;1.30;;;25.40;45.40;;;;;;5050667;28;20470;-68
2023/06/08 07:47:07;;;;;;;3.83;1.70;;;25.50;45.50;;;;;;5051589;28;20108;-68
2023/06/08 07:49:33;;;;;;;2.13;1.85;;;25.40;44.80;;;;;;5051647;28;20436;-68
2023/06/08 07:51:59;;;;;;;3.28;1.48;;;25.40;45.40;;;;;;5051741;28;20048;-69
2023/06/08 07:54:25;;;;;;;2.85;1.27;;;25.40;45.50;;;;;;5051477;28;20120;-69
2023/06/08 07:56:52;;;;;;;2.20;1.17;;;25.40;45.70;;;;;;5051337;28;20506;-69
2023/06/08 07:59:18;;;;;;;2.33;1.83;;;25.50;45.60;;;;;;5051790;28;20055;-68
2023/06/08 08:01:44;;;;;;;1.80;1.60;;;25.40;43.60;;;;;;5051560;28;20025;-68
2023/06/08 08:04:10;;;;;;;1.60;1.50;;;25.60;45.60;;;;;;5051623;28;20083;-69
2023/06/08 08:06:37;;;;;;;2.15;1.75;;;25.40;45.50;;;;;;5051248;28;20036;-68
2023/06/08 08:09:04;;;;;;;1.70;1.02;;;25.50;45.80;;;;;;5033354;28;20045;-69
2023/06/08 08:11:30;;;;;;;2.63;1.48;;;25.50;45.40;;;;;;5051382;28;20029;-69
2023/06/08 08:13:56;;;;;;;1.42;1.33;;;25.50;45.60;;;;;;5051241;28;20040;-68
2023/06/08 08:16:23;;;;;;;1.50;1.40;;;25.60;45.70;;;;;;5068665;28;20055;-69
2023/06/08 08:18:49;;;;;;;1.90;1.38;;;25.60;45.70;;;;;;5068716;28;20040;-69
2023/06/08 08:21:15;;;;;;;2.15;1.35;;;25.60;45.60;;;;;;5068659;28;20059;-69
2023/06/08 08:23:41;;;;;;;3.03;1.67;;;25.50;45.60;;;;;;5068737;28;20120;-69
2023/06/08 08:26:07;;;;;;;1.40;1.30;;;25.50;45.10;;;;;;5035276;28;20040;-69
2023/06/08 08:28:37;;;;;;;4.63;1.73;;;25.50;45.60;;;;;;5068480;28;20059;-69
2023/06/08 08:31:03;;;;;;;2.63;1.90;;;25.60;45.70;;;;;;5068608;28;20048;-69
2023/06/08 08:33:30;;;;;;;4.07;1.63;;;25.50;45.70;;;;;;5068692;28;20044;-69
2023/06/08 08:35:56;;;;;;;2.30;1.70;;;25.40;45.60;;;;;;5051820;28;20464;-69
2023/06/08 08:38:22;;;;;;;4.68;1.60;;;25.50;45.60;;;;;;5068418;28;20068;-69
2023/06/08 08:40:51;;;;;;;4.10;1.08;;;25.40;45.30;;;;;;5068364;28;20028;-68
2023/06/08 08:43:26;;;;;;;5.80;2.17;;;25.40;45.50;;;;;;5069443;28;20040;-69
2023/06/08 08:45:53;;;;;;;3.53;1.48;;;25.40;45.20;;;;;;5072601;28;20066;-69
2023/06/08 08:48:22;;;;;;;4.28;1.83;;;25.50;45.80;;;;;;5056852;28;20057;-68
2023/06/08 08:50:53;;;;;;;2.30;1.60;;;25.40;45.60;;;;;;5054844;28;20060;-69
2023/06/08 08:53:27;;;;;;;1.45;1.35;;;25.40;45.30;;;;;;5054974;28;20036;-69
2023/06/08 08:55:55;;;;;;;2.65;1.35;;;25.50;45.20;;;;;;5036918;28;20104;-69
2023/06/08 08:58:22;;;;;;;7.60;1.70;;;25.50;45.50;;;;;;5053491;28;20495;-69
2023/06/08 09:00:51;;;;;;;1.60;1.50;;;25.50;45.40;;;;;;5054636;28;20029;-68
2023/06/08 09:03:17;;;;;;;2.47;1.35;;;25.50;45.50;;;;;;5054722;28;20479;-69
2023/06/08 09:05:44;;;;;;;4.28;1.85;;;25.50;45.70;;;;;;5054338;28;20033;-68
2023/06/08 09:08:11;;;;;;;1.65;1.30;;;25.50;44.90;;;;;;5053470;28;20511;-68
2023/06/08 09:10:37;;;;;;;3.05;1.60;;;25.40;45.70;;;;;;5054730;28;20043;-68
2023/06/08 09:13:03;;;;;;;1.40;1.13;;;25.50;45.70;;;;;;5054596;28;20111;-69
2023/06/08 09:15:31;;;;;;;2.45;1.90;;;25.50;45.70;;;;;;5054539;28;20112;-69
2023/06/08 09:18:02;;;;;;;2.53;1.73;;;25.60;45.60;;;;;;5054214;28;20480;-68
2023/06/08 09:20:31;;;;;;;2.47;1.27;;;25.50;45.60;;;;;;5054326;28;20060;-68
2023/06/08 09:22:57;;;;;;;3.47;1.73;;;25.50;45.50;;;;;;5054408;28;20055;-68
2023/06/08 09:25:37;;;;;;;3.70;1.65;;;25.50;45.60;;;;;;5053962;28;20031;-69
2023/06/08 09:28:17;;;;;;;3.92;1.50;;;25.40;45.50;;;;;;5053612;28;20032;-68
2023/06/08 09:30:49;;;;;;;1.30;1.20;;;25.50;45.40;;;;;;5034332;28;20033;-69
2023/06/08 09:33:33;;;;;;;4.93;2.15;;;25.50;44.90;;;;;;5034613;28;20041;-69
2023/06/08 09:35:59;;;;;;;2.75;1.67;;;25.40;45.50;;;;;;5034196;28;20037;-69
2023/06/08 09:38:29;;;;;;;3.60;1.70;;;25.50;45.20;;;;;;5034050;28;20038;-69
2023/06/08 09:41:19;;;;;;;4.18;1.67;;;25.40;45.00;;;;;;5034272;28;20045;-68
2023/06/08 09:43:47;;;;;;;3.88;1.48;;;25.50;45.30;;;;;;5034289;28;20160;-69
2023/06/08 09:46:32;;;;;;;2.95;1.95;;;25.40;45.50;;;;;;5051448;28;20086;-69
2023/06/08 09:48:58;;;;;;;4.63;1.45;;;25.50;45.70;;;;;;5051337;28;20052;-68
2023/06/08 09:51:25;;;;;;;0.75;0.75;;;25.40;45.60;;;;;;5051295;28;20046;-69
2023/06/08 09:53:56;;;;;;;5.50;1.67;;;25.30;45.20;;;;;;5051411;28;20612;-69
2023/06/08 09:56:24;;;;;;;3.47;1.67;;;25.30;45.40;;;;;;5050552;28;20123;-68
2023/06/08 09:58:53;;;;;;;3.33;1.27;;;25.50;45.70;;;;;;5051191;28;20143;-69
2023/06/08 10:01:49;;;;;;;3.50;1.45;;;25.40;45.60;;;;;;5034778;28;20490;-69
2023/06/08 10:04:31;;;;;;;2.00;1.38;;;25.30;44.10;;;;;;5031366;28;20077;-69
2023/06/08 10:07:04;;;;;;;3.45;1.60;;;25.40;45.30;;;;;;5031221;28;20561;-69
2023/06/08 10:09:32;;;;;;;;;;;25.30;45.80;;;;;;5031541;28;20100;-69
2023/06/08 10:12:00;;;;;;;4.25;1.88;;;25.40;45.40;;;;;;5031103;28;19940;-68
2023/06/08 10:14:27;;;;;;;2.70;1.45;;;25.50;45.80;;;;;;5031003;28;20077;-69
2023/06/08 10:16:55;;;;;;;1.98;1.60;;;25.50;46.00;;;;;;5030965;28;20056;-69
2023/06/08 10:19:23;;;;;;;2.13;1.42;;;25.60;45.60;;;;;;5030752;28;20124;-68
2023/06/08 10:21:53;;;;;;;4.13;1.55;;;25.50;46.00;;;;;;5030831;28;20053;-69
2023/06/08 10:24:22;;;;;;;2.80;2.08;;;25.50;45.90;;;;;;5015482;28;20053;-69
2023/06/08 10:26:50;;;;;;;1.90;1.35;;;25.60;45.80;;;;;;5010902;28;20042;-69
2023/06/08 10:29:17;;;;;;;3.65;1.42;;;25.60;45.80;;;;;;4994916;28;20144;-69
2023/06/08 10:31:49;;;;;;;2.50;1.65;;;25.60;45.90;;;;;;5011095;28;20050;-69
2023/06/08 10:34:19;;;;;;;3.95;1.73;;;25.60;45.80;;;;;;5010869;28;20050;-68
2023/06/08 10:36:45;;;;;;;3.15;2.13;;;25.70;45.50;;;;;;5010759;28;20112;-69
2023/06/08 10:39:13;;;;;;;6.53;1.58;;;25.70;45.60;;;;;;5027332;28;20034;-68
2023/06/08 10:41:39;;;;;;;3.03;1.50;;;25.70;45.80;;;;;;5035539;28;20037;-69
2023/06/08 10:44:06;;;;;;;2.15;1.42;;;25.70;45.60;;;;;;5052958;28;20056;-69
2023/06/08 10:46:42;;;;;;;2.97;1.67;;;25.70;45.80;;;;;;5053007;28;20041;-69
2023/06/08 10:49:08;;;;;;;3.00;1.80;;;25.80;45.80;;;;;;5052646;28;20086;-69
2023/06/08 10:51:44;;;;;;;2.90;1.52;;;25.80;43.70;;;;;;5052764;28;20491;-69
2023/06/08 10:54:22;;;;;;;2.53;1.42;;;25.70;45.50;;;;;;5053092;28;20025;-69
2023/06/08 10:56:52;;;;;;;1.98;1.73;;;25.80;45.50;;;;;;5052640;28;20029;-69
2023/06/08 10:59:25;;;;;;;1.50;1.40;;;25.70;45.50;;;;;;5034770;28;20068;-68
2023/06/08 11:01:51;;;;;;;2.70;1.42;;;25.80;45.10;;;;;;5052624;28;20082;-69
2023/06/08 11:04:20;;;;;;;5.35;1.55;;;25.90;45.50;;;;;;5051326;28;20025;-69
2023/06/08 11:06:46;;;;;;;3.08;1.73;;;25.80;45.50;;;;;;5051344;28;20401;-69
2023/06/08 11:09:13;;;;;;;6.10;1.63;;;25.80;45.50;;;;;;5052267;28;20550;-69
2023/06/08 11:11:50;;;;;;;5.00;1.50;;;25.90;45.50;;;;;;5052493;28;20037;-69
2023/06/08 11:14:20;;;;;;;1.80;1.27;;;25.80;45.00;;;;;;5052340;28;20021;-68
2023/06/08 11:16:54;;;;;;;0.35;0.35;;;25.90;45.00;;;;;;5052247;28;20534;-69
2023/06/08 11:19:21;;;;;;;3.72;1.33;;;26.00;45.50;;;;;;5052192;28;20041;-68
2023/06/08 11:21:50;;;;;;;2.75;1.38;;;26.00;45.70;;;;;;5052219;28;20412;-69
2023/06/08 11:24:17;;;;;;;3.13;1.17;;;26.00;45.10;;;;;;5051847;28;20025;-69
2023/06/08 11:26:44;;;;;;;3.15;1.27;;;25.90;45.20;;;;;;5052237;28;20033;-69
2023/06/08 11:29:10;;;;;;;1.70;1.45;;;26.00;45.60;;;;;;5051812;28;20095;-69
2023/06/08 11:31:44;;;;;;;9.55;1.95;;;26.00;45.00;;;;;;5052267;28;20045;-68
2023/06/08 11:34:15;;;;;;;3.20;2.08;;;26.00;45.50;;;;;;5050565;28;20477;-69
2023/06/08 11:36:42;;;;;;;2.72;1.83;;;26.00;45.60;;;;;;5051848;28;20480;-69
2023/06/08 11:39:11;;;;;;;1.70;1.30;;;26.00;43.80;;;;;;5051748;28;20044;-69
2023/06/08 11:41:46;;;;;;;4.30;1.80;;;25.90;44.70;;;;;;5051709;28;20037;-69
2023/06/08 11:44:14;;;;;;;1.17;1.08;;;26.00;45.20;;;;;;5033763;28;20037;-69
2023/06/08 11:46:40;;;;;;;3.55;1.58;;;25.90;45.00;;;;;;5051965;28;20040;-69
2023/06/08 11:49:10;;;;;;;3.50;1.63;;;26.00;45.00;;;;;;5051771;28;20047;-69
2023/06/08 11:51:47;;;;;;;2.38;1.60;;;26.00;45.50;;;;;;5068896;28;20534;-68
2023/06/08 11:54:15;;;;;;;2.40;1.60;;;26.00;45.50;;;;;;5069087;28;20043;-70
2023/06/08 11:56:45;;;;;;;1.45;1.35;;;25.90;44.80;;;;;;5069186;28;20063;-68
2023/06/08 11:59:13;;;;;;;3.70;1.80;;;26.00;45.50;;;;;;5068821;28;20047;-68
2023/06/08 12:01:58;;;;;;;1.60;1.50;;;26.00;45.10;;;;;;5069277;28;20085;-69
2023/06/08 12:04:33;;;;;;;5.30;1.60;;;26.00;45.50;;;;;;5069015;28;20048;-69
2023/06/08 12:07:09;;;;;;;4.00;1.30;;;26.00;45.50;;;;;;5068950;28;20036;-69
2023/06/08 12:09:36;;;;;;;4.53;2.05;;;26.00;45.30;;;;;;5068788;28;20055;-69
2023/06/08 12:12:11;;;;;;;2.97;1.40;;;26.10;45.30;;;;;;5052519;28;20036;-69
2023/06/08 12:14:43;;;;;;;3.00;1.50;;;26.00;45.30;;;;;;5068793;28;20115;-69
2023/06/08 12:17:14;;;;;;;6.03;1.48;;;25.90;44.90;;;;;;5068688;28;20040;-68
2023/06/08 12:19:47;;;;;;;1.42;1.33;;;26.00;45.40;;;;;;5067947;28;20032;-68
2023/06/08 12:22:13;;;;;;;1.70;1.55;;;25.90;45.00;;;;;;5068664;28;20045;-68
2023/06/08 12:24:40;;;;;;;2.58;1.55;;;26.00;45.20;;;;;;5068699;28;20037;-69
2023/06/08 12:27:06;;;;;;;1.20;1.10;;;26.00;44.50;;;;;;5068640;28;20044;-69
2023/06/08 12:29:33;;;;;;;1.83;1.67;;;25.90;44.50;;;;;;5055906;28;20389;-69
2023/06/08 12:32:00;;;;;;;3.50;1.40;;;26.00;44.40;;;;;;5050955;28;20044;-68
2023/06/08 12:34:30;;;;;;;4.07;1.27;;;26.00;44.70;;;;;;5050949;28;20036;-69
2023/06/08 12:36:56;;;;;;;1.52;1.42;;;25.90;45.00;;;;;;5048259;28;20409;-69
2023/06/08 12:39:22;;;;;;;2.65;1.63;;;26.00;45.50;;;;;;5048067;28;20454;-69
2023/06/08 12:41:48;;;;;;;3.88;1.50;;;26.00;45.50;;;;;;5015000;28;20041;-69
2023/06/08 12:44:16;;;;;;;4.68;1.77;;;25.90;45.00;;;;;;5048704;28;20061;-69
2023/06/08 12:46:42;;;;;;;4.80;1.55;;;25.90;45.00;;;;;;5064760;28;20126;-70
2023/06/08 12:49:08;;;;;;;6.75;1.60;;;25.90;45.00;;;;;;5031933;28;20036;-68
2023/06/08 12:51:34;;;;;;;1.50;1.40;;;26.00;45.50;;;;;;5048326;28;20059;-69
2023/06/08 12:54:00;;;;;;;7.03;1.88;;;25.90;45.00;;;;;;5048641;28;20524;-69